createdAt,value
2022-10-22T00:02:56.173Z,16.41
2022-10-22T00:08:49.314Z,16.29
2022-10-22T00:14:40.454Z,16.20
2022-10-22T00:20:27.132Z,16.25
2022-10-22T00:26:13.967Z,16.42
2022-10-22T00:32:00.896Z,16.22
2022-10-22T00:37:50.411Z,16.10
2022-10-22T00:43:59.296Z,16.15
2022-10-22T00:49:48.019Z,16.23
2022-10-22T00:55:39.344Z,16.31
2022-10-22T01:01:31.703Z,16.21
2022-10-22T01:07:21.216Z,16.18
2022-10-22T01:13:28.801Z,16.10
2022-10-22T01:19:40.745Z,16.09
2022-10-22T01:25:56.280Z,16.05
2022-10-22T01:31:47.844Z,15.82
2022-10-22T01:37:42.574Z,15.97
2022-10-22T01:43:32.616Z,16.06
2022-10-22T01:49:58.414Z,16.11
2022-10-22T01:56:24.343Z,16.05
2022-10-22T02:02:23.731Z,16.08
2022-10-22T02:08:15.678Z,16.15
2022-10-22T02:14:04.947Z,16.05
2022-10-22T02:20:02.230Z,15.97
2022-10-22T02:25:56.077Z,15.95
2022-10-22T02:31:46.377Z,16.05
2022-10-22T02:37:33.790Z,16.13
2022-10-22T02:43:20.606Z,15.97
2022-10-22T02:49:07.447Z,16.06
2022-10-22T02:54:54.090Z,16.02
2022-10-22T03:00:42.448Z,15.82
2022-10-22T03:06:29.273Z,15.59
2022-10-22T03:12:17.968Z,15.46
2022-10-22T03:18:04.807Z,15.74
2022-10-22T03:23:52.386Z,15.77
2022-10-22T03:29:40.460Z,15.69
2022-10-22T03:35:27.466Z,15.65
2022-10-22T03:41:14.352Z,15.54
2022-10-22T03:47:04.794Z,15.56
2022-10-22T03:52:53.680Z,15.54
2022-10-22T03:58:42.016Z,15.53
2022-10-22T04:04:29.318Z,15.47
2022-10-22T04:10:16.135Z,15.43
2022-10-22T04:16:20.082Z,15.51
2022-10-22T04:22:07.155Z,15.38
2022-10-22T04:27:53.846Z,15.24
2022-10-22T04:33:40.869Z,15.14
2022-10-22T04:39:27.559Z,15.18
2022-10-22T04:45:16.966Z,15.18
2022-10-22T04:51:06.761Z,14.93
2022-10-22T04:56:53.353Z,14.88
2022-10-22T05:02:40.613Z,14.95
2022-10-22T05:08:28.269Z,14.81
2022-10-22T05:14:18.085Z,14.76
2022-10-22T05:20:05.451Z,14.68
2022-10-22T05:25:52.251Z,14.61
2022-10-22T05:31:39.035Z,14.63
2022-10-22T05:37:25.830Z,14.60
2022-10-22T05:43:12.770Z,14.51
2022-10-22T05:49:01.583Z,14.35
2022-10-22T05:54:48.256Z,14.31
2022-10-22T06:00:36.312Z,14.22
2022-10-22T06:06:30.405Z,14.32
2022-10-22T06:12:17.310Z,14.41
2022-10-22T06:18:04.163Z,14.18
2022-10-22T06:23:50.947Z,14.20
2022-10-22T06:29:37.597Z,14.36
2022-10-22T06:35:24.288Z,14.35
2022-10-22T06:41:14.177Z,14.27
2022-10-22T06:47:01.068Z,14.30
2022-10-22T06:52:49.728Z,14.31
2022-10-22T06:58:36.701Z,14.48
2022-10-22T07:04:23.723Z,14.87
2022-10-22T07:10:10.798Z,15.33
2022-10-22T07:15:57.596Z,15.79
2022-10-22T07:21:45.023Z,16.35
2022-10-22T07:27:31.626Z,16.86
2022-10-22T07:33:20.536Z,16.36
2022-10-22T07:39:08.381Z,15.98
2022-10-22T07:45:05.998Z,15.73
2022-10-22T07:50:52.696Z,15.47
2022-10-22T07:57:00.754Z,15.34
2022-10-22T08:02:47.763Z,15.29
2022-10-22T08:08:35.194Z,15.14
2022-10-22T08:14:24.849Z,15.30
2022-10-22T08:20:14.062Z,15.19
2022-10-22T08:26:02.997Z,15.39
2022-10-22T08:31:51.123Z,15.43
2022-10-22T08:37:43.850Z,15.36
2022-10-22T08:44:24.990Z,15.37
2022-10-22T08:50:19.923Z,15.56
2022-10-22T08:56:06.883Z,15.50
2022-10-22T09:01:55.875Z,15.80
2022-10-22T09:07:48.582Z,16.10
2022-10-22T09:13:37.784Z,16.40
2022-10-22T09:19:38.703Z,16.52
2022-10-22T09:25:34.059Z,16.79
2022-10-22T09:31:20.855Z,17.27
2022-10-22T09:37:10.122Z,17.66
2022-10-22T09:43:00.832Z,18.09
2022-10-22T09:48:49.972Z,18.50
2022-10-22T09:54:42.652Z,18.38
2022-10-22T10:00:30.253Z,18.38
2022-10-22T10:06:21.961Z,18.51
2022-10-22T10:12:41.173Z,18.73
2022-10-22T10:18:43.566Z,18.71
2022-10-22T10:24:54.856Z,18.85
2022-10-22T10:31:02.339Z,19.08
2022-10-22T10:37:06.025Z,19.25
2022-10-22T10:43:02.619Z,18.92
2022-10-22T10:48:57.077Z,18.86
2022-10-22T10:54:53.544Z,19.18
2022-10-22T11:00:54.046Z,19.04
2022-10-22T11:06:43.352Z,18.82
2022-10-22T11:12:44.567Z,19.04
2022-10-22T11:18:44.216Z,19.22
2022-10-22T11:24:59.913Z,19.13
2022-10-22T11:30:52.659Z,19.49
2022-10-22T11:36:47.098Z,19.63
2022-10-22T11:42:43.254Z,19.63
2022-10-22T11:48:38.075Z,19.46
2022-10-22T11:54:31.961Z,19.37
2022-10-22T12:00:46.710Z,19.11
2022-10-22T12:06:56.061Z,19.36
2022-10-22T12:12:43.380Z,19.74
2022-10-22T12:18:42.753Z,19.92
2022-10-22T12:24:33.342Z,19.98
2022-10-22T12:30:24.845Z,20.08
2022-10-22T12:36:17.622Z,20.00
2022-10-22T12:42:09.708Z,19.77
2022-10-22T12:48:00.018Z,19.80
2022-10-22T12:53:51.435Z,19.69
2022-10-22T12:59:45.852Z,19.69
2022-10-22T13:05:40.787Z,19.28
2022-10-22T13:11:39.195Z,19.24
2022-10-22T13:17:42.099Z,18.99
2022-10-22T13:23:31.579Z,19.05
2022-10-22T13:29:26.362Z,18.87
2022-10-22T13:35:25.636Z,18.68
2022-10-22T13:41:21.790Z,18.49
2022-10-22T13:47:30.514Z,18.70
2022-10-22T13:53:23.002Z,18.71
2022-10-22T13:59:10.677Z,18.83
2022-10-22T14:05:03.821Z,19.00
2022-10-22T14:10:53.960Z,19.02
2022-10-22T14:16:41.729Z,18.93
2022-10-22T14:22:28.883Z,19.05
2022-10-22T14:28:15.611Z,18.93
2022-10-22T14:34:04.119Z,18.84
2022-10-22T14:40:00.331Z,18.80
2022-10-22T14:45:54.818Z,18.93
2022-10-22T14:51:44.931Z,18.81
2022-10-22T14:57:33.031Z,18.85
2022-10-22T15:03:20.149Z,18.75
2022-10-22T15:09:08.343Z,18.81
2022-10-22T15:14:55.802Z,18.69
2022-10-22T15:20:42.533Z,18.59
2022-10-22T15:26:29.307Z,18.47
2022-10-22T15:32:16.082Z,18.50
2022-10-22T15:38:02.804Z,18.54
2022-10-22T15:43:49.794Z,18.58
2022-10-22T15:49:41.897Z,18.44
2022-10-22T15:55:28.690Z,18.12
2022-10-22T16:01:15.852Z,18.01
2022-10-22T16:07:03.205Z,18.06
2022-10-22T16:12:51.707Z,17.91
2022-10-22T16:18:38.922Z,18.00
2022-10-22T16:24:27.297Z,17.94
2022-10-22T16:30:14.714Z,17.75
2022-10-22T16:36:02.056Z,17.54
2022-10-22T16:41:48.998Z,17.53
2022-10-22T16:47:35.899Z,17.44
2022-10-22T16:53:23.366Z,17.60
2022-10-22T16:59:10.484Z,17.40
2022-10-22T17:04:57.494Z,17.39
2022-10-22T17:10:44.803Z,17.23
2022-10-22T17:16:34.403Z,17.20
2022-10-22T17:22:21.794Z,17.11
2022-10-22T17:28:14.205Z,17.18
2022-10-22T17:34:01.306Z,16.93
2022-10-22T17:39:50.201Z,16.95
2022-10-22T17:45:36.995Z,16.94
2022-10-22T17:51:25.623Z,16.94
2022-10-22T17:57:13.491Z,16.91
2022-10-22T18:03:01.471Z,16.78
2022-10-22T18:08:48.890Z,16.85
2022-10-22T18:14:35.985Z,16.88
2022-10-22T18:20:22.842Z,16.84
2022-10-22T18:26:13.019Z,16.83
2022-10-22T18:32:12.858Z,16.65
2022-10-22T18:38:02.465Z,16.58
2022-10-22T18:43:57.845Z,16.58
2022-10-22T18:49:54.417Z,16.54
2022-10-22T18:55:42.636Z,16.57
2022-10-22T19:01:36.027Z,16.38
2022-10-22T19:07:23.182Z,16.46
2022-10-22T19:13:10.660Z,16.53
2022-10-22T19:19:05.026Z,16.62
2022-10-22T19:24:55.324Z,16.58
2022-10-22T19:30:44.675Z,16.65
2022-10-22T19:36:32.785Z,16.36
2022-10-22T19:42:21.042Z,16.31
2022-10-22T19:48:11.437Z,16.17
2022-10-22T19:54:18.620Z,16.18
2022-10-22T20:00:15.214Z,16.22
2022-10-22T20:06:03.669Z,16.32
2022-10-22T20:11:50.727Z,16.31
2022-10-22T20:25:26.565Z,16.46
2022-10-22T20:31:24.114Z,16.44
2022-10-22T20:37:12.994Z,16.40
2022-10-22T20:43:17.999Z,16.38
2022-10-22T20:49:56.603Z,16.46
2022-10-22T20:55:55.134Z,16.43
2022-10-22T21:01:49.509Z,16.38
2022-10-22T21:07:45.155Z,16.51
2022-10-22T21:13:38.086Z,16.49
2022-10-22T21:19:27.567Z,16.66
2022-10-22T21:25:14.485Z,16.63
2022-10-22T21:31:03.272Z,16.62
2022-10-22T21:36:49.989Z,16.58
2022-10-22T21:42:36.740Z,16.68
2022-10-22T21:48:23.462Z,16.71
2022-10-22T21:54:16.735Z,16.57
2022-10-22T22:00:06.281Z,16.53
2022-10-22T22:06:01.880Z,16.48
2022-10-22T22:11:48.817Z,16.50
2022-10-22T22:17:38.104Z,16.50
2022-10-22T22:23:25.857Z,16.49
2022-10-22T22:29:12.627Z,16.38
2022-10-22T22:35:02.116Z,16.45
2022-10-22T22:40:48.800Z,16.40
2022-10-22T22:46:36.291Z,16.51
2022-10-22T22:52:22.969Z,16.45
2022-10-22T22:58:12.272Z,16.58
2022-10-22T23:04:01.359Z,16.50
2022-10-22T23:09:50.203Z,16.54
2022-10-22T23:15:41.719Z,16.43
2022-10-22T23:21:31.970Z,16.59
2022-10-22T23:27:18.684Z,16.59
2022-10-22T23:33:05.570Z,16.50
2022-10-22T23:38:52.790Z,16.50
2022-10-22T23:44:39.695Z,16.47
2022-10-22T23:50:26.332Z,16.54
2022-10-22T23:56:15.466Z,16.61
